sensor_id;sensor_type;location;lat;lon;timestamp;pressure;altitude;pressure_sealevel;temperature;humidity
5356;BME280;70449;52.486;13.386;2023-09-07T00:01:36;101738.25;;;24.63;100.00
5356;BME280;70449;52.486;13.386;2023-09-07T00:04:04;101745.53;;;24.67;100.00
5356;BME280;70449;52.486;13.386;2023-09-07T00:06:32;101749.00;;;24.61;100.00
5356;BME280;70449;52.486;13.386;2023-09-07T00:09:00;101745.94;;;24.50;100.00
5356;BME280;70449;52.486;13.386;2023-09-07T00:11:27;101745.13;;;24.50;100.00
5356;BME280;70449;52.486;13.386;2023-09-07T00:13:54;101752.25;;;24.63;100.00
5356;BME280;70449;52.486;13.386;2023-09-07T00:16:25;101751.56;;;24.34;100.00
5356;BME280;70449;52.486;13.386;2023-09-07T00:18:52;101742.59;;;24.13;100.00
5356;BME280;70449;52.486;13.386;2023-09-07T00:21:19;101746.06;;;24.22;100.00
5356;BME280;70449;52.486;13.386;2023-09-07T00:23:47;101750.44;;;24.39;100.00
5356;BME280;70449;52.486;13.386;2023-09-07T00:26:14;101758.31;;;24.33;100.00
5356;BME280;70449;52.486;13.386;2023-09-07T00:28:42;101749.28;;;24.24;100.00
5356;BME280;70449;52.486;13.386;2023-09-07T00:31:09;101750.41;;;24.19;100.00
5356;BME280;70449;52.486;13.386;2023-09-07T00:33:37;101756.00;;;24.04;100.00
5356;BME280;70449;52.486;13.386;2023-09-07T00:36:05;101754.53;;;24.10;100.00
5356;BME280;70449;52.486;13.386;2023-09-07T00:38:32;101753.63;;;24.21;100.00
5356;BME280;70449;52.486;13.386;2023-09-07T00:40:59;101748.41;;;23.88;100.00
5356;BME280;70449;52.486;13.386;2023-09-07T00:43:26;101757.72;;;24.08;100.00
5356;BME280;70449;52.486;13.386;2023-09-07T00:45:54;101744.88;;;23.91;100.00
5356;BME280;70449;52.486;13.386;2023-09-07T00:48:25;101741.69;;;24.40;100.00
5356;BME280;70449;52.486;13.386;2023-09-07T00:50:54;101751.38;;;24.11;100.00
5356;BME280;70449;52.486;13.386;2023-09-07T00:53:21;101750.03;;;24.21;100.00
5356;BME280;70449;52.486;13.386;2023-09-07T00:55:50;101755.53;;;23.86;100.00
5356;BME280;70449;52.486;13.386;2023-09-07T00:58:18;101750.38;;;24.04;100.00
5356;BME280;70449;52.486;13.386;2023-09-07T01:00:45;101746.78;;;24.03;100.00
5356;BME280;70449;52.486;13.386;2023-09-07T01:03:12;101752.91;;;24.09;100.00
5356;BME280;70449;52.486;13.386;2023-09-07T01:05:46;101751.78;;;23.66;100.00
5356;BME280;70449;52.486;13.386;2023-09-07T01:08:23;101746.81;;;23.59;100.00
5356;BME280;70449;52.486;13.386;2023-09-07T01:10:52;101745.59;;;23.72;100.00
5356;BME280;70449;52.486;13.386;2023-09-07T01:13:19;101744.25;;;23.82;100.00
5356;BME280;70449;52.486;13.386;2023-09-07T01:15:50;101741.72;;;24.09;100.00
5356;BME280;70449;52.486;13.386;2023-09-07T01:18:18;101744.00;;;24.19;100.00
5356;BME280;70449;52.486;13.386;2023-09-07T01:20:47;101747.34;;;23.65;100.00
5356;BME280;70449;52.486;13.386;2023-09-07T01:23:16;101735.59;;;23.87;100.00
5356;BME280;70449;52.486;13.386;2023-09-07T01:25:44;101736.31;;;23.84;100.00
5356;BME280;70449;52.486;13.386;2023-09-07T01:28:12;101734.25;;;23.69;100.00
5356;BME280;70449;52.486;13.386;2023-09-07T01:30:41;101738.81;;;23.89;100.00
5356;BME280;70449;52.486;13.386;2023-09-07T01:33:08;101736.81;;;23.74;100.00
5356;BME280;70449;52.486;13.386;2023-09-07T01:35:35;101743.16;;;23.71;100.00
5356;BME280;70449;52.486;13.386;2023-09-07T01:38:03;101737.94;;;23.85;100.00
5356;BME280;70449;52.486;13.386;2023-09-07T01:40:32;101742.22;;;23.67;100.00
5356;BME280;70449;52.486;13.386;2023-09-07T01:42:59;101739.66;;;23.46;100.00
5356;BME280;70449;52.486;13.386;2023-09-07T01:45:26;101735.66;;;23.75;100.00
5356;BME280;70449;52.486;13.386;2023-09-07T01:47:54;101736.50;;;23.63;100.00
5356;BME280;70449;52.486;13.386;2023-09-07T01:50:21;101745.88;;;23.83;100.00
5356;BME280;70449;52.486;13.386;2023-09-07T01:52:48;101742.81;;;23.88;100.00
5356;BME280;70449;52.486;13.386;2023-09-07T01:55:15;101737.44;;;23.67;100.00
5356;BME280;70449;52.486;13.386;2023-09-07T01:57:44;101737.84;;;23.82;100.00
5356;BME280;70449;52.486;13.386;2023-09-07T02:00:12;101749.94;;;23.86;100.00
5356;BME280;70449;52.486;13.386;2023-09-07T02:02:40;101749.03;;;23.53;100.00
5356;BME280;70449;52.486;13.386;2023-09-07T02:05:08;101742.72;;;23.57;100.00
5356;BME280;70449;52.486;13.386;2023-09-07T02:07:35;101735.44;;;23.52;100.00
5356;BME280;70449;52.486;13.386;2023-09-07T02:10:03;101742.09;;;23.63;100.00
5356;BME280;70449;52.486;13.386;2023-09-07T02:12:30;101740.91;;;23.48;100.00
5356;BME280;70449;52.486;13.386;2023-09-07T02:15:03;101746.31;;;23.13;100.00
5356;BME280;70449;52.486;13.386;2023-09-07T02:17:31;101745.72;;;23.20;100.00
5356;BME280;70449;52.486;13.386;2023-09-07T02:19:58;101737.59;;;22.90;100.00
5356;BME280;70449;52.486;13.386;2023-09-07T02:22:25;101738.69;;;23.26;100.00
5356;BME280;70449;52.486;13.386;2023-09-07T02:24:53;101739.91;;;23.13;100.00
5356;BME280;70449;52.486;13.386;2023-09-07T02:27:20;101738.94;;;23.21;100.00
5356;BME280;70449;52.486;13.386;2023-09-07T02:29:47;101742.34;;;23.42;100.00
5356;BME280;70449;52.486;13.386;2023-09-07T02:32:15;101737.75;;;23.50;100.00
5356;BME280;70449;52.486;13.386;2023-09-07T02:34:42;101735.19;;;23.29;100.00
5356;BME280;70449;52.486;13.386;2023-09-07T02:37:09;101737.13;;;23.57;100.00
5356;BME280;70449;52.486;13.386;2023-09-07T02:39:37;101738.16;;;23.36;100.00
5356;BME280;70449;52.486;13.386;2023-09-07T02:42:04;101731.47;;;23.25;100.00
5356;BME280;70449;52.486;13.386;2023-09-07T02:44:33;101731.72;;;23.20;100.00
5356;BME280;70449;52.486;13.386;2023-09-07T02:47:01;101741.00;;;23.08;100.00
5356;BME280;70449;52.486;13.386;2023-09-07T02:49:30;101741.16;;;22.75;100.00
5356;BME280;70449;52.486;13.386;2023-09-07T02:51:57;101738.06;;;23.04;100.00
5356;BME280;70449;52.486;13.386;2023-09-07T02:54:24;101746.28;;;22.60;100.00
5356;BME280;70449;52.486;13.386;2023-09-07T02:56:51;101748.41;;;22.51;100.00
5356;BME280;70449;52.486;13.386;2023-09-07T02:59:19;101740.66;;;22.97;100.00
5356;BME280;70449;52.486;13.386;2023-09-07T03:01:46;101749.28;;;22.80;100.00
5356;BME280;70449;52.486;13.386;2023-09-07T03:04:13;101746.00;;;22.90;100.00
5356;BME280;70449;52.486;13.386;2023-09-07T03:06:41;101746.53;;;22.43;100.00
5356;BME280;70449;52.486;13.386;2023-09-07T03:09:09;101746.28;;;22.73;100.00
5356;BME280;70449;52.486;13.386;2023-09-07T03:11:36;101744.38;;;22.89;100.00
5356;BME280;70449;52.486;13.386;2023-09-07T03:14:03;101753.03;;;22.72;100.00
5356;BME280;70449;52.486;13.386;2023-09-07T03:16:29;101745.59;;;22.63;100.00
5356;BME280;70449;52.486;13.386;2023-09-07T03:18:57;101750.81;;;22.77;100.00
5356;BME280;70449;52.486;13.386;2023-09-07T03:21:24;101747.69;;;22.54;100.00
5356;BME280;70449;52.486;13.386;2023-09-07T03:23:56;101742.09;;;22.79;100.00
5356;BME280;70449;52.486;13.386;2023-09-07T03:26:24;101754.94;;;22.55;100.00
5356;BME280;70449;52.486;13.386;2023-09-07T03:28:51;101752.69;;;22.61;100.00
5356;BME280;70449;52.486;13.386;2023-09-07T03:31:18;101740.53;;;22.81;100.00
5356;BME280;70449;52.486;13.386;2023-09-07T03:33:46;101743.91;;;22.87;100.00
5356;BME280;70449;52.486;13.386;2023-09-07T03:36:13;101746.28;;;22.60;100.00
5356;BME280;70449;52.486;13.386;2023-09-07T03:38:41;101745.41;;;22.32;100.00
5356;BME280;70449;52.486;13.386;2023-09-07T03:41:10;101743.16;;;22.37;100.00
5356;BME280;70449;52.486;13.386;2023-09-07T03:43:37;101750.25;;;22.10;100.00
5356;BME280;70449;52.486;13.386;2023-09-07T03:46:06;101746.69;;;22.47;100.00
5356;BME280;70449;52.486;13.386;2023-09-07T03:48:33;101745.72;;;22.42;100.00
5356;BME280;70449;52.486;13.386;2023-09-07T03:51:00;101746.06;;;22.29;100.00
5356;BME280;70449;52.486;13.386;2023-09-07T03:53:27;101755.00;;;22.10;100.00
5356;BME280;70449;52.486;13.386;2023-09-07T03:55:54;101747.84;;;22.33;100.00
5356;BME280;70449;52.486;13.386;2023-09-07T03:58:23;101751.22;;;22.39;100.00
5356;BME280;70449;52.486;13.386;2023-09-07T04:00:50;101752.81;;;22.15;100.00
5356;BME280;70449;52.486;13.386;2023-09-07T04:03:17;101750.75;;;22.25;100.00
5356;BME280;70449;52.486;13.386;2023-09-07T04:05:45;101757.44;;;21.99;100.00
5356;BME280;70449;52.486;13.386;2023-09-07T04:08:12;101757.94;;;22.26;100.00
5356;BME280;70449;52.486;13.386;2023-09-07T04:10:40;101750.75;;;22.25;100.00
5356;BME280;70449;52.486;13.386;2023-09-07T04:13:08;101755.63;;;22.28;100.00
5356;BME280;70449;52.486;13.386;2023-09-07T04:15:42;101752.38;;;22.38;100.00
5356;BME280;70449;52.486;13.386;2023-09-07T04:18:10;101766.34;;;22.38;100.00
5356;BME280;70449;52.486;13.386;2023-09-07T04:20:38;101762.34;;;22.14;100.00
5356;BME280;70449;52.486;13.386;2023-09-07T04:23:05;101769.53;;;21.91;100.00
5356;BME280;70449;52.486;13.386;2023-09-07T04:25:33;101768.34;;;21.80;100.00
5356;BME280;70449;52.486;13.386;2023-09-07T04:28:00;101771.75;;;21.85;100.00
5356;BME280;70449;52.486;13.386;2023-09-07T04:30:27;101776.16;;;21.86;100.00
5356;BME280;70449;52.486;13.386;2023-09-07T04:32:56;101774.66;;;21.56;100.00
5356;BME280;70449;52.486;13.386;2023-09-07T04:35:28;101783.19;;;21.59;100.00
5356;BME280;70449;52.486;13.386;2023-09-07T04:37:56;101773.34;;;21.86;100.00
5356;BME280;70449;52.486;13.386;2023-09-07T04:40:24;101771.09;;;21.67;100.00
5356;BME280;70449;52.486;13.386;2023-09-07T04:42:55;101781.53;;;21.91;100.00
5356;BME280;70449;52.486;13.386;2023-09-07T04:45:23;101780.03;;;21.94;100.00
5356;BME280;70449;52.486;13.386;2023-09-07T04:47:50;101778.63;;;22.00;100.00
5356;BME280;70449;52.486;13.386;2023-09-07T04:50:19;101776.72;;;21.80;100.00
5356;BME280;70449;52.486;13.386;2023-09-07T04:52:48;101781.75;;;21.53;100.00
5356;BME280;70449;52.486;13.386;2023-09-07T04:55:15;101789.09;;;21.91;100.00
5356;BME280;70449;52.486;13.386;2023-09-07T04:57:42;101780.66;;;21.79;100.00
5356;BME280;70449;52.486;13.386;2023-09-07T05:00:10;101776.75;;;22.04;100.00
5356;BME280;70449;52.486;13.386;2023-09-07T05:02:38;101780.22;;;21.77;100.00
5356;BME280;70449;52.486;13.386;2023-09-07T05:05:09;101779.03;;;22.23;100.00
5356;BME280;70449;52.486;13.386;2023-09-07T05:07:37;101783.06;;;22.13;100.00
5356;BME280;70449;52.486;13.386;2023-09-07T05:10:07;101781.00;;;22.47;100.00
5356;BME280;70449;52.486;13.386;2023-09-07T05:12:38;101785.88;;;22.26;100.00
5356;BME280;70449;52.486;13.386;2023-09-07T05:15:06;101783.34;;;22.21;100.00
5356;BME280;70449;52.486;13.386;2023-09-07T05:17:34;101779.28;;;21.85;100.00
5356;BME280;70449;52.486;13.386;2023-09-07T05:20:10;101786.28;;;21.91;100.00
5356;BME280;70449;52.486;13.386;2023-09-07T05:22:47;101782.88;;;22.31;100.00
5356;BME280;70449;52.486;13.386;2023-09-07T05:25:15;101782.06;;;22.30;100.00
5356;BME280;70449;52.486;13.386;2023-09-07T05:27:42;101781.00;;;22.47;100.00
5356;BME280;70449;52.486;13.386;2023-09-07T05:30:11;101787.88;;;22.37;100.00
5356;BME280;70449;52.486;13.386;2023-09-07T05:32:38;101788.91;;;22.70;100.00
5356;BME280;70449;52.486;13.386;2023-09-07T05:35:08;101787.50;;;22.76;100.00
5356;BME280;70449;52.486;13.386;2023-09-07T05:37:36;101786.31;;;23.01;100.00
5356;BME280;70449;52.486;13.386;2023-09-07T05:40:06;101782.88;;;22.55;100.00
5356;BME280;70449;52.486;13.386;2023-09-07T05:42:34;101789.13;;;22.77;100.00
5356;BME280;70449;52.486;13.386;2023-09-07T05:45:01;101791.44;;;22.87;100.00
5356;BME280;70449;52.486;13.386;2023-09-07T05:47:29;101797.25;;;22.94;100.00
5356;BME280;70449;52.486;13.386;2023-09-07T05:49:56;101796.44;;;22.81;100.00
5356;BME280;70449;52.486;13.386;2023-09-07T05:52:24;101801.63;;;22.67;100.00
5356;BME280;70449;52.486;13.386;2023-09-07T05:54:51;101798.06;;;23.07;100.00
5356;BME280;70449;52.486;13.386;2023-09-07T05:57:19;101797.16;;;23.31;100.00
5356;BME280;70449;52.486;13.386;2023-09-07T05:59:46;101797.78;;;23.24;100.00
5356;BME280;70449;52.486;13.386;2023-09-07T06:02:14;101801.06;;;23.26;100.00
5356;BME280;70449;52.486;13.386;2023-09-07T06:04:41;101804.69;;;23.43;100.00
5356;BME280;70449;52.486;13.386;2023-09-07T06:07:08;101801.44;;;23.13;100.00
5356;BME280;70449;52.486;13.386;2023-09-07T06:09:36;101805.22;;;23.89;100.00
5356;BME280;70449;52.486;13.386;2023-09-07T06:12:04;101806.47;;;23.75;100.00
5356;BME280;70449;52.486;13.386;2023-09-07T06:14:33;101807.25;;;23.20;100.00
5356;BME280;70449;52.486;13.386;2023-09-07T06:17:00;101805.84;;;23.82;100.00
5356;BME280;70449;52.486;13.386;2023-09-07T06:19:28;101806.56;;;23.95;100.00
5356;BME280;70449;52.486;13.386;2023-09-07T06:21:55;101816.63;;;23.96;100.00
5356;BME280;70449;52.486;13.386;2023-09-07T06:24:22;101811.53;;;24.46;100.00
5356;BME280;70449;52.486;13.386;2023-09-07T06:26:49;101811.13;;;23.99;100.00
5356;BME280;70449;52.486;13.386;2023-09-07T06:29:19;101816.53;;;24.24;100.00
5356;BME280;70449;52.486;13.386;2023-09-07T06:31:47;101804.97;;;24.10;100.00
5356;BME280;70449;52.486;13.386;2023-09-07T06:34:16;101805.50;;;23.99;100.00
5356;BME280;70449;52.486;13.386;2023-09-07T06:36:43;101810.22;;;24.27;100.00
5356;BME280;70449;52.486;13.386;2023-09-07T06:39:10;101808.59;;;24.58;100.00
5356;BME280;70449;52.486;13.386;2023-09-07T06:41:37;101815.09;;;24.30;100.00
5356;BME280;70449;52.486;13.386;2023-09-07T06:44:05;101813.41;;;24.93;100.00
5356;BME280;70449;52.486;13.386;2023-09-07T06:46:32;101811.13;;;25.33;100.00
5356;BME280;70449;52.486;13.386;2023-09-07T06:49:01;101814.47;;;25.04;100.00
5356;BME280;70449;52.486;13.386;2023-09-07T06:51:30;101817.50;;;24.95;100.00
5356;BME280;70449;52.486;13.386;2023-09-07T06:53:57;101817.09;;;25.51;100.00
5356;BME280;70449;52.486;13.386;2023-09-07T06:56:25;101816.56;;;24.56;100.00
5356;BME280;70449;52.486;13.386;2023-09-07T06:58:52;101810.22;;;24.94;100.00
5356;BME280;70449;52.486;13.386;2023-09-07T07:01:20;101808.09;;;24.87;100.00
5356;BME280;70449;52.486;13.386;2023-09-07T07:03:47;101818.31;;;24.80;100.00
5356;BME280;70449;52.486;13.386;2023-09-07T07:06:16;101813.63;;;25.19;100.00
5356;BME280;70449;52.486;13.386;2023-09-07T07:08:43;101819.09;;;24.96;100.00
5356;BME280;70449;52.486;13.386;2023-09-07T07:11:10;101824.72;;;24.80;100.00
5356;BME280;70449;52.486;13.386;2023-09-07T07:13:38;101820.50;;;25.06;100.00
5356;BME280;70449;52.486;13.386;2023-09-07T07:16:06;101819.59;;;24.82;100.00
5356;BME280;70449;52.486;13.386;2023-09-07T07:18:33;101815.34;;;25.08;100.00
5356;BME280;70449;52.486;13.386;2023-09-07T07:21:00;101817.63;;;25.38;100.00
5356;BME280;70449;52.486;13.386;2023-09-07T07:23:30;101817.03;;;25.48;100.00
5356;BME280;70449;52.486;13.386;2023-09-07T07:25:57;101826.47;;;25.78;100.00
5356;BME280;70449;52.486;13.386;2023-09-07T07:28:25;101823.50;;;25.91;100.00
5356;BME280;70449;52.486;13.386;2023-09-07T07:30:52;101831.69;;;25.99;100.00
5356;BME280;70449;52.486;13.386;2023-09-07T07:33:20;101825.94;;;25.53;100.00
5356;BME280;70449;52.486;13.386;2023-09-07T07:35:47;101829.59;;;25.34;100.00
5356;BME280;70449;52.486;13.386;2023-09-07T07:38:15;101829.25;;;25.78;100.00
5356;BME280;70449;52.486;13.386;2023-09-07T07:40:43;101834.00;;;25.94;100.00
5356;BME280;70449;52.486;13.386;2023-09-07T07:43:18;101828.47;;;25.97;100.00
5356;BME280;70449;52.486;13.386;2023-09-07T07:45:45;101828.75;;;25.92;100.00
5356;BME280;70449;52.486;13.386;2023-09-07T07:48:12;101841.16;;;25.91;100.00
5356;BME280;70449;52.486;13.386;2023-09-07T07:50:40;101833.13;;;25.90;100.00
5356;BME280;70449;52.486;13.386;2023-09-07T07:53:07;101833.06;;;25.86;100.00
5356;BME280;70449;52.486;13.386;2023-09-07T07:55:35;101830.69;;;26.34;100.00
5356;BME280;70449;52.486;13.386;2023-09-07T07:58:09;101827.22;;;26.18;100.00
5356;BME280;70449;52.486;13.386;2023-09-07T08:00:37;101826.88;;;26.46;100.00
5356;BME280;70449;52.486;13.386;2023-09-07T08:03:06;101824.97;;;27.03;100.00
5356;BME280;70449;52.486;13.386;2023-09-07T08:05:35;101827.78;;;26.50;100.00
5356;BME280;70449;52.486;13.386;2023-09-07T08:08:06;101834.72;;;26.83;100.00
5356;BME280;70449;52.486;13.386;2023-09-07T08:10:34;101822.22;;;27.37;100.00
5356;BME280;70449;52.486;13.386;2023-09-07T08:13:03;101825.44;;;27.73;100.00
5356;BME280;70449;52.486;13.386;2023-09-07T08:15:33;101828.19;;;27.99;100.00
5356;BME280;70449;52.486;13.386;2023-09-07T08:18:01;101819.88;;;27.43;100.00
5356;BME280;70449;52.486;13.386;2023-09-07T08:20:31;101825.72;;;27.94;96.10
5356;BME280;70449;52.486;13.386;2023-09-07T08:22:59;101816.31;;;28.24;91.99
5356;BME280;70449;52.486;13.386;2023-09-07T08:25:29;101828.59;;;28.46;91.25
5356;BME280;70449;52.486;13.386;2023-09-07T08:27:56;101819.13;;;28.72;87.72
5356;BME280;70449;52.486;13.386;2023-09-07T08:30:25;101821.13;;;28.20;91.08
5356;BME280;70449;52.486;13.386;2023-09-07T08:32:54;101826.69;;;28.13;93.18
5356;BME280;70449;52.486;13.386;2023-09-07T08:35:21;101823.69;;;27.95;91.79
5356;BME280;70449;52.486;13.386;2023-09-07T08:37:53;101817.28;;;27.64;91.72
5356;BME280;70449;52.486;13.386;2023-09-07T08:40:21;101821.25;;;27.93;88.34
5356;BME280;70449;52.486;13.386;2023-09-07T08:42:49;101822.56;;;28.03;85.39
5356;BME280;70449;52.486;13.386;2023-09-07T08:45:19;101817.03;;;28.14;80.93
5356;BME280;70449;52.486;13.386;2023-09-07T08:47:49;101818.66;;;28.15;81.29
5356;BME280;70449;52.486;13.386;2023-09-07T08:50:19;101818.09;;;27.98;78.34
5356;BME280;70449;52.486;13.386;2023-09-07T08:52:52;101815.84;;;28.63;75.17
5356;BME280;70449;52.486;13.386;2023-09-07T08:55:20;101821.88;;;28.61;75.78
5356;BME280;70449;52.486;13.386;2023-09-07T08:57:48;101818.44;;;28.89;72.93
5356;BME280;70449;52.486;13.386;2023-09-07T09:00:16;101819.19;;;28.79;72.40
5356;BME280;70449;52.486;13.386;2023-09-07T09:02:46;101824.03;;;28.31;75.71
5356;BME280;70449;52.486;13.386;2023-09-07T09:05:15;101820.22;;;29.15;70.25
5356;BME280;70449;52.486;13.386;2023-09-07T09:07:46;101820.47;;;29.76;65.83
5356;BME280;70449;52.486;13.386;2023-09-07T09:10:13;101805.84;;;29.46;64.82
5356;BME280;70449;52.486;13.386;2023-09-07T09:12:45;101814.56;;;29.15;66.50
5356;BME280;70449;52.486;13.386;2023-09-07T09:15:13;101820.22;;;29.19;64.86
5356;BME280;70449;52.486;13.386;2023-09-07T09:17:40;101820.31;;;29.37;65.38
5356;BME280;70449;52.486;13.386;2023-09-07T09:20:21;101817.13;;;29.46;62.53
5356;BME280;70449;52.486;13.386;2023-09-07T09:22:53;101812.97;;;29.18;64.83
5356;BME280;70449;52.486;13.386;2023-09-07T09:25:20;101810.56;;;29.20;64.64
5356;BME280;70449;52.486;13.386;2023-09-07T09:27:48;101803.94;;;29.89;61.32
5356;BME280;70449;52.486;13.386;2023-09-07T09:30:15;101810.03;;;30.23;60.29
5356;BME280;70449;52.486;13.386;2023-09-07T09:32:43;101805.97;;;29.96;60.11
5356;BME280;70449;52.486;13.386;2023-09-07T09:35:11;101807.16;;;29.91;59.38
5356;BME280;70449;52.486;13.386;2023-09-07T09:37:45;101799.50;;;29.99;59.18
5356;BME280;70449;52.486;13.386;2023-09-07T09:40:15;101793.88;;;30.20;58.70
5356;BME280;70449;52.486;13.386;2023-09-07T09:42:44;101792.59;;;29.68;59.06
5356;BME280;70449;52.486;13.386;2023-09-07T09:45:12;101796.28;;;29.90;59.69
5356;BME280;70449;52.486;13.386;2023-09-07T09:47:41;101794.69;;;30.14;58.14
5356;BME280;70449;52.486;13.386;2023-09-07T09:50:11;101796.28;;;30.47;57.51
5356;BME280;70449;52.486;13.386;2023-09-07T09:52:38;101780.13;;;30.58;56.38
5356;BME280;70449;52.486;13.386;2023-09-07T09:55:07;101785.78;;;30.44;55.37
5356;BME280;70449;52.486;13.386;2023-09-07T09:57:40;101785.38;;;30.17;56.48
5356;BME280;70449;52.486;13.386;2023-09-07T10:00:09;101794.69;;;30.60;56.36
5356;BME280;70449;52.486;13.386;2023-09-07T10:02:59;101782.19;;;30.29;55.16
5356;BME280;70449;52.486;13.386;2023-09-07T10:05:28;101782.97;;;30.26;55.16
5356;BME280;70449;52.486;13.386;2023-09-07T10:08:02;101769.22;;;30.35;55.54
5356;BME280;70449;52.486;13.386;2023-09-07T10:10:34;101776.00;;;30.99;53.88
5356;BME280;70449;52.486;13.386;2023-09-07T10:13:05;101777.88;;;31.34;52.77
5356;BME280;70449;52.486;13.386;2023-09-07T10:15:32;101770.84;;;31.63;51.42
5356;BME280;70449;52.486;13.386;2023-09-07T10:18:11;101776.41;;;31.78;49.96
5356;BME280;70449;52.486;13.386;2023-09-07T10:20:51;101770.53;;;31.51;50.35
5356;BME280;70449;52.486;13.386;2023-09-07T10:23:20;101766.81;;;32.17;49.29
5356;BME280;70449;52.486;13.386;2023-09-07T10:25:49;101774.84;;;31.70;50.47
5356;BME280;70449;52.486;13.386;2023-09-07T10:28:25;101765.91;;;31.75;49.09
5356;BME280;70449;52.486;13.386;2023-09-07T10:31:04;101763.00;;;31.08;50.25
5356;BME280;70449;52.486;13.386;2023-09-07T10:33:32;101760.06;;;31.37;49.37
5356;BME280;70449;52.486;13.386;2023-09-07T10:36:00;101766.84;;;31.50;49.91
5356;BME280;70449;52.486;13.386;2023-09-07T10:38:28;101759.94;;;31.58;48.90
5356;BME280;70449;52.486;13.386;2023-09-07T10:40:57;101769.38;;;31.34;49.06
5356;BME280;70449;52.486;13.386;2023-09-07T10:43:27;101769.25;;;31.62;48.62
5356;BME280;70449;52.486;13.386;2023-09-07T10:45:55;101769.72;;;32.10;48.27
5356;BME280;70449;52.486;13.386;2023-09-07T10:48:23;101758.91;;;31.97;46.20
5356;BME280;70449;52.486;13.386;2023-09-07T10:50:52;101758.56;;;31.81;47.08
5356;BME280;70449;52.486;13.386;2023-09-07T10:53:26;101771.78;;;32.05;46.23
5356;BME280;70449;52.486;13.386;2023-09-07T10:55:56;101755.91;;;32.12;46.08
5356;BME280;70449;52.486;13.386;2023-09-07T10:58:27;101760.94;;;31.93;46.53
5356;BME280;70449;52.486;13.386;2023-09-07T11:00:55;101764.41;;;32.12;44.65
5356;BME280;70449;52.486;13.386;2023-09-07T11:03:24;101760.38;;;32.58;44.42
5356;BME280;70449;52.486;13.386;2023-09-07T11:05:54;101757.75;;;31.84;45.49
5356;BME280;70449;52.486;13.386;2023-09-07T11:08:23;101755.63;;;32.47;44.64
5356;BME280;70449;52.486;13.386;2023-09-07T11:10:50;101747.31;;;32.67;43.44
5356;BME280;70449;52.486;13.386;2023-09-07T11:13:18;101750.94;;;32.23;43.84
5356;BME280;70449;52.486;13.386;2023-09-07T11:15:47;101747.22;;;32.33;43.89
5356;BME280;70449;52.486;13.386;2023-09-07T11:18:20;101743.09;;;32.38;42.80
5356;BME280;70449;52.486;13.386;2023-09-07T11:20:49;101744.81;;;31.83;44.48
5356;BME280;70449;52.486;13.386;2023-09-07T11:23:18;101741.91;;;32.35;43.36
5356;BME280;70449;52.486;13.386;2023-09-07T11:25:47;101735.63;;;32.92;41.60
5356;BME280;70449;52.486;13.386;2023-09-07T11:28:17;101729.06;;;33.03;42.30
5356;BME280;70449;52.486;13.386;2023-09-07T11:30:54;101733.78;;;33.13;41.03
5356;BME280;70449;52.486;13.386;2023-09-07T11:33:22;101730.38;;;32.57;40.58
5356;BME280;70449;52.486;13.386;2023-09-07T11:35:50;101730.75;;;32.93;40.23
5356;BME280;70449;52.486;13.386;2023-09-07T11:38:18;101732.94;;;32.40;40.16
5356;BME280;70449;52.486;13.386;2023-09-07T11:40:45;101727.69;;;32.80;39.41
5356;BME280;70449;52.486;13.386;2023-09-07T11:43:13;101730.81;;;32.89;39.12
5356;BME280;70449;52.486;13.386;2023-09-07T11:45:40;101721.31;;;32.69;39.15
5356;BME280;70449;52.486;13.386;2023-09-07T11:48:10;101726.84;;;33.14;38.96
5356;BME280;70449;52.486;13.386;2023-09-07T11:50:39;101727.28;;;32.78;39.01
5356;BME280;70449;52.486;13.386;2023-09-07T11:53:06;101724.84;;;32.42;40.46
5356;BME280;70449;52.486;13.386;2023-09-07T11:55:34;101721.91;;;32.87;39.76
5356;BME280;70449;52.486;13.386;2023-09-07T11:58:01;101723.59;;;32.81;39.26
5356;BME280;70449;52.486;13.386;2023-09-07T12:00:29;101722.59;;;32.99;38.71
5356;BME280;70449;52.486;13.386;2023-09-07T12:02:57;101721.75;;;33.02;39.79
5356;BME280;70449;52.486;13.386;2023-09-07T12:05:25;101724.78;;;33.18;39.51
5356;BME280;70449;52.486;13.386;2023-09-07T12:07:53;101720.91;;;33.62;38.90
5356;BME280;70449;52.486;13.386;2023-09-07T12:10:20;101723.59;;;33.73;37.88
5356;BME280;70449;52.486;13.386;2023-09-07T12:12:48;101720.13;;;34.33;36.19
5356;BME280;70449;52.486;13.386;2023-09-07T12:15:15;101721.72;;;34.34;36.03
5356;BME280;70449;52.486;13.386;2023-09-07T12:17:42;101716.22;;;34.46;36.11
5356;BME280;70449;52.486;13.386;2023-09-07T12:20:10;101717.25;;;35.16;34.70
5356;BME280;70449;52.486;13.386;2023-09-07T12:22:41;101719.91;;;34.67;35.12
5356;BME280;70449;52.486;13.386;2023-09-07T12:25:09;101723.91;;;35.09;34.09
5356;BME280;70449;52.486;13.386;2023-09-07T12:27:36;101722.34;;;35.25;34.28
5356;BME280;70449;52.486;13.386;2023-09-07T12:30:05;101714.75;;;36.03;33.51
5356;BME280;70449;52.486;13.386;2023-09-07T12:32:39;101715.63;;;35.51;35.42
5356;BME280;70449;52.486;13.386;2023-09-07T12:35:07;101715.19;;;35.53;35.35
5356;BME280;70449;52.486;13.386;2023-09-07T12:37:36;101715.50;;;36.07;34.26
5356;BME280;70449;52.486;13.386;2023-09-07T12:40:06;101712.28;;;36.22;34.25
5356;BME280;70449;52.486;13.386;2023-09-07T12:42:39;101710.22;;;36.06;34.73
5356;BME280;70449;52.486;13.386;2023-09-07T12:45:08;101710.50;;;36.12;34.22
5356;BME280;70449;52.486;13.386;2023-09-07T12:47:36;101713.56;;;36.04;34.85
5356;BME280;70449;52.486;13.386;2023-09-07T12:50:04;101707.28;;;36.09;34.76